Time;durP1;ratioP1;P1;durP2;ratioP2;P2;SDS_P1;SDS_P2;PMS_P1;PMS_P2;Temp;Humidity;BMP_temperature;BMP_pressure;BME280_temperature;BME280_humidity;BME280_pressure;Samples;Min_cycle;Max_cycle;Signal;HPM_P1;HPM_P2
2023/09/16 00:01:43;;;;;;;1.50;0.93;;;15.10;99.90;;;;;;5082422;28;20051;-79
2023/09/16 00:04:11;;;;;;;1.27;0.88;;;15.10;99.90;;;;;;5082797;28;20048;-79
2023/09/16 00:06:38;;;;;;;2.22;1.13;;;15.10;1.00;;;;;;5079771;28;20192;-79
2023/09/16 00:09:07;;;;;;;1.02;0.80;;;15.10;1.00;;;;;;5064967;28;20147;-79
2023/09/16 00:11:36;;;;;;;2.88;1.10;;;15.10;1.00;;;;;;5082443;28;20047;-79
2023/09/16 00:14:03;;;;;;;2.03;1.13;;;15.10;1.00;;;;;;5065159;28;20220;-79
2023/09/16 00:16:30;;;;;;;1.65;1.00;;;15.20;1.00;;;;;;5080247;28;20556;-79
2023/09/16 00:18:57;;;;;;;1.30;0.77;;;15.20;1.00;;;;;;5082384;28;20054;-79
2023/09/16 00:21:25;;;;;;;2.13;1.15;;;15.20;1.00;;;;;;5079357;28;20140;-79
2023/09/16 00:23:52;;;;;;;1.80;1.10;;;15.20;1.00;;;;;;5082295;28;20052;-79
2023/09/16 00:26:19;;;;;;;1.45;1.00;;;15.20;1.00;;;;;;5080404;28;20051;-78
2023/09/16 00:28:46;;;;;;;1.33;0.90;;;15.20;1.00;;;;;;5078821;28;20052;-80
2023/09/16 00:31:14;;;;;;;1.63;1.10;;;15.20;1.00;;;;;;5068239;28;20055;-81
2023/09/16 00:33:41;;;;;;;1.63;0.80;;;15.20;1.00;;;;;;5069224;28;20067;-81
2023/09/16 00:36:08;;;;;;;1.33;1.00;;;15.10;1.00;;;;;;5062659;28;20053;-81
2023/09/16 00:38:38;;;;;;;1.27;0.93;;;15.10;1.00;;;;;;5065411;28;20602;-79
2023/09/16 00:41:06;;;;;;;1.40;1.00;;;15.10;1.00;;;;;;5069209;28;20052;-79
2023/09/16 00:43:34;;;;;;;1.27;1.00;;;15.10;1.00;;;;;;5069858;28;20468;-80
2023/09/16 00:46:00;;;;;;;1.88;0.90;;;15.10;1.00;;;;;;5086607;28;20503;-79
2023/09/16 00:48:27;;;;;;;1.75;1.00;;;15.00;1.00;;;;;;5050743;28;20519;-80
2023/09/16 00:50:55;;;;;;;1.38;0.88;;;15.00;1.00;;;;;;5088078;28;20089;-79
2023/09/16 00:53:22;;;;;;;1.90;1.20;;;14.90;99.90;;;;;;5086406;28;20127;-79
2023/09/16 00:55:49;;;;;;;2.10;1.20;;;14.90;1.00;;;;;;5070139;28;20063;-79
2023/09/16 00:58:19;;;;;;;1.35;1.02;;;14.90;1.00;;;;;;5087811;28;20329;-79
2023/09/16 01:00:46;;;;;;;1.52;1.05;;;14.90;1.00;;;;;;5087767;28;20063;-80
2023/09/16 01:03:14;;;;;;;1.80;1.20;;;14.90;1.00;;;;;;5086297;28;20132;-79
2023/09/16 01:05:41;;;;;;;1.83;1.25;;;14.80;1.00;;;;;;5070792;28;20056;-79
2023/09/16 01:08:11;;;;;;;1.38;1.10;;;14.80;1.00;;;;;;5068947;28;20076;-80
2023/09/16 01:10:41;;;;;;;1.83;1.20;;;14.80;1.00;;;;;;5087046;28;20054;-79
2023/09/16 01:13:08;;;;;;;1.35;1.00;;;14.90;1.00;;;;;;5054885;28;20136;-80
2023/09/16 01:15:39;;;;;;;1.60;1.00;;;14.80;1.00;;;;;;5053614;28;20050;-79
2023/09/16 01:18:21;;;;;;;1.63;1.13;;;14.80;1.00;;;;;;5086585;28;20502;-79
2023/09/16 01:20:49;;;;;;;1.70;1.10;;;14.80;1.00;;;;;;5087532;28;20052;-80
2023/09/16 01:23:18;;;;;;;1.40;0.85;;;14.80;1.00;;;;;;5086321;28;20749;-80
2023/09/16 01:25:45;;;;;;;1.92;1.10;;;14.80;1.00;;;;;;5088453;28;20276;-79
2023/09/16 01:28:13;;;;;;;1.15;0.90;;;14.70;1.00;;;;;;5088453;28;20052;-79
2023/09/16 01:30:44;;;;;;;1.33;1.00;;;14.70;1.00;;;;;;5084765;28;20208;-79
2023/09/16 01:33:37;;;;;;;1.20;1.00;;;14.70;1.00;;;;;;5075312;28;20046;-79
2023/09/16 01:36:06;;;;;;;1.30;1.00;;;14.70;1.00;;;;;;5072634;28;20047;-79
2023/09/16 01:38:33;;;;;;;1.58;1.02;;;14.60;1.00;;;;;;5073321;28;20360;-79
2023/09/16 01:41:00;;;;;;;0.80;0.63;;;14.60;1.00;;;;;;5069861;28;20500;-80
2023/09/16 01:43:27;;;;;;;1.67;1.05;;;14.60;1.00;;;;;;5052353;28;20052;-79
2023/09/16 01:45:54;;;;;;;1.55;0.90;;;14.60;1.00;;;;;;5052310;28;20056;-80
2023/09/16 01:48:21;;;;;;;1.88;1.17;;;14.60;1.00;;;;;;5068836;28;20218;-79
2023/09/16 01:50:58;;;;;;;2.30;1.23;;;14.60;1.00;;;;;;5070527;28;20091;-79
2023/09/16 01:53:25;;;;;;;1.40;0.98;;;14.60;1.00;;;;;;5067314;28;20048;-80
2023/09/16 01:55:52;;;;;;;1.95;1.00;;;14.60;1.00;;;;;;5087092;28;20044;-80
2023/09/16 01:58:19;;;;;;;1.83;1.30;;;14.60;1.00;;;;;;5087009;28;20046;-80
2023/09/16 02:00:46;;;;;;;1.85;1.08;;;14.60;1.00;;;;;;5052253;28;20067;-79
2023/09/16 02:03:13;;;;;;;1.40;0.90;;;14.60;1.00;;;;;;5068202;28;20048;-80
2023/09/16 02:05:40;;;;;;;1.60;1.05;;;14.60;1.00;;;;;;5069084;28;20055;-79
2023/09/16 02:08:08;;;;;;;1.50;1.20;;;14.60;1.00;;;;;;5083691;28;20048;-79
2023/09/16 02:10:35;;;;;;;1.20;0.90;;;14.60;1.00;;;;;;5085134;28;20445;-80
2023/09/16 02:13:02;;;;;;;1.00;0.77;;;14.60;1.00;;;;;;5055752;28;20048;-80
2023/09/16 02:15:29;;;;;;;1.15;1.00;;;14.50;1.00;;;;;;5086189;28;20507;-80
2023/09/16 02:17:56;;;;;;;1.45;0.75;;;14.50;1.00;;;;;;5067788;28;20127;-79
2023/09/16 02:20:25;;;;;;;1.73;1.10;;;14.50;1.00;;;;;;5086656;28;20052;-79
2023/09/16 02:22:52;;;;;;;1.23;0.82;;;14.50;1.00;;;;;;5083783;28;20109;-79
2023/09/16 02:25:21;;;;;;;1.65;1.00;;;14.50;1.00;;;;;;5085051;28;20108;-79
2023/09/16 02:27:49;;;;;;;1.88;0.82;;;14.50;1.00;;;;;;5080791;28;20086;-79
2023/09/16 02:30:16;;;;;;;2.95;0.90;;;14.40;1.00;;;;;;5068424;28;20080;-78
2023/09/16 02:32:43;;;;;;;1.73;1.00;;;14.40;1.00;;;;;;5085309;28;20109;-79
2023/09/16 02:35:10;;;;;;;1.98;1.00;;;14.40;1.00;;;;;;5085096;28;20058;-78
2023/09/16 02:37:37;;;;;;;4.25;1.05;;;14.30;1.00;;;;;;5083284;28;20063;-78
2023/09/16 02:40:05;;;;;;;1.60;1.10;;;14.30;1.00;;;;;;5079613;28;20435;-79
2023/09/16 02:42:32;;;;;;;1.60;1.10;;;14.20;1.00;;;;;;5084713;28;20222;-79
2023/09/16 02:44:59;;;;;;;1.58;1.02;;;14.20;1.00;;;;;;5084651;28;20044;-79
2023/09/16 02:47:26;;;;;;;1.63;0.95;;;14.20;1.00;;;;;;5085446;28;20078;-79
2023/09/16 02:49:53;;;;;;;1.42;0.80;;;14.20;1.00;;;;;;5064700;28;20135;-78
2023/09/16 02:52:21;;;;;;;1.60;0.80;;;14.30;1.00;;;;;;5063480;28;20098;-79
2023/09/16 02:54:48;;;;;;;1.20;0.88;;;14.20;1.00;;;;;;5085850;28;20461;-79
2023/09/16 02:57:15;;;;;;;1.65;1.10;;;14.20;1.00;;;;;;5084095;28;20056;-78
2023/09/16 02:59:42;;;;;;;2.83;1.10;;;14.30;1.00;;;;;;5067391;28;20064;-79
2023/09/16 03:02:09;;;;;;;1.70;1.05;;;14.30;1.00;;;;;;5050795;28;20114;-79
2023/09/16 03:04:36;;;;;;;1.45;0.95;;;14.30;1.00;;;;;;5067806;28;20052;-79
2023/09/16 03:07:04;;;;;;;1.27;0.95;;;14.20;1.00;;;;;;5082775;28;20105;-79
2023/09/16 03:09:31;;;;;;;1.52;1.10;;;14.20;1.00;;;;;;5083925;28;20131;-79
2023/09/16 03:11:58;;;;;;;1.42;1.05;;;14.10;1.00;;;;;;5084053;28;20441;-79
2023/09/16 03:14:26;;;;;;;1.35;1.10;;;14.10;1.00;;;;;;5084168;28;20127;-79
2023/09/16 03:16:55;;;;;;;1.58;1.00;;;14.10;1.00;;;;;;5065852;28;20058;-80
2023/09/16 03:19:22;;;;;;;1.42;0.98;;;14.10;1.00;;;;;;5068350;28;20059;-80
2023/09/16 03:21:50;;;;;;;2.35;1.30;;;14.10;1.00;;;;;;5083204;28;20095;-80
2023/09/16 03:24:18;;;;;;;0.85;0.82;;;14.10;1.00;;;;;;5084952;28;20052;-79
2023/09/16 03:26:44;;;;;;;1.10;0.90;;;14.10;1.00;;;;;;5083576;28;20136;-79
2023/09/16 03:29:12;;;;;;;1.15;0.77;;;14.10;1.00;;;;;;5083797;28;20105;-79
2023/09/16 03:31:38;;;;;;;1.23;0.93;;;14.10;1.00;;;;;;5082578;28;20044;-78
2023/09/16 03:34:05;;;;;;;1.83;1.30;;;14.00;1.00;;;;;;5083364;28;20052;-79
2023/09/16 03:36:32;;;;;;;1.35;0.98;;;14.00;1.00;;;;;;5083174;28;20389;-79
2023/09/16 03:38:59;;;;;;;1.42;1.08;;;14.00;1.00;;;;;;5066814;28;20135;-80
2023/09/16 03:41:26;;;;;;;1.35;1.02;;;14.00;1.00;;;;;;5066674;28;20155;-79
2023/09/16 03:43:53;;;;;;;1.10;0.80;;;14.00;1.00;;;;;;5085232;28;20109;-80
2023/09/16 03:46:20;;;;;;;1.63;0.85;;;14.00;1.00;;;;;;5066905;28;20573;-80
2023/09/16 03:48:46;;;;;;;1.38;1.08;;;14.00;1.00;;;;;;5084731;28;20105;-79
2023/09/16 03:51:14;;;;;;;1.27;0.98;;;14.00;1.00;;;;;;5082191;28;20524;-79
2023/09/16 03:53:41;;;;;;;1.70;0.93;;;14.00;1.00;;;;;;5066710;28;20577;-79
2023/09/16 03:56:11;;;;;;;1.58;1.15;;;14.00;1.00;;;;;;5050216;28;20052;-79
2023/09/16 03:58:38;;;;;;;1.30;0.95;;;13.90;1.00;;;;;;5067076;28;20052;-79
2023/09/16 04:01:06;;;;;;;1.33;0.90;;;13.90;1.00;;;;;;5070548;28;20110;-80
2023/09/16 04:03:33;;;;;;;1.80;1.00;;;13.90;1.00;;;;;;5072076;28;20109;-78
2023/09/16 04:06:03;;;;;;;1.48;0.98;;;13.90;1.00;;;;;;5050408;28;20109;-79
2023/09/16 04:08:30;;;;;;;1.25;1.00;;;13.80;1.00;;;;;;5083187;28;20084;-79
2023/09/16 04:11:08;;;;;;;1.70;0.95;;;13.80;1.00;;;;;;5052714;28;20105;-79
2023/09/16 04:13:35;;;;;;;1.15;0.90;;;13.90;1.00;;;;;;5083440;28;20078;-78
2023/09/16 04:16:02;;;;;;;1.00;0.80;;;13.90;1.00;;;;;;5083371;28;20071;-79
2023/09/16 04:18:31;;;;;;;1.48;1.10;;;13.80;1.00;;;;;;5083061;28;20048;-79
2023/09/16 04:20:58;;;;;;;1.67;1.10;;;13.80;1.00;;;;;;5083424;28;20083;-79
2023/09/16 04:23:25;;;;;;;0.52;0.52;;;13.80;1.00;;;;;;5081209;28;20632;-79
2023/09/16 04:25:56;;;;;;;1.52;0.98;;;13.80;1.00;;;;;;5065572;28;20097;-79
2023/09/16 04:28:23;;;;;;;1.60;1.10;;;13.80;1.00;;;;;;5075719;28;20040;-79
2023/09/16 04:30:51;;;;;;;1.35;1.10;;;13.80;1.00;;;;;;5081354;28;20105;-79
2023/09/16 04:33:18;;;;;;;1.92;1.20;;;13.70;1.00;;;;;;5083121;28;20154;-80
2023/09/16 04:35:45;;;;;;;0.95;0.82;;;13.70;2.40;;;;;;5048172;28;20417;-79
2023/09/16 04:38:13;;;;;;;1.55;0.90;;;13.70;7.00;;;;;;5050209;28;20037;-79
2023/09/16 04:40:43;;;;;;;1.58;1.00;;;13.70;14.30;;;;;;5049528;28;20052;-79
2023/09/16 04:43:12;;;;;;;1.38;1.00;;;13.70;11.20;;;;;;5062810;28;20356;-79
2023/09/16 04:45:43;;;;;;;1.30;0.82;;;13.80;13.20;;;;;;5061543;28;20071;-79
2023/09/16 04:48:15;;;;;;;1.43;0.90;;;13.80;18.00;;;;;;5045306;28;20146;-78
2023/09/16 04:50:45;;;;;;;1.75;1.10;;;13.80;17.20;;;;;;5064721;28;20304;-80
2023/09/16 04:53:13;;;;;;;1.23;0.90;;;13.80;20.70;;;;;;5046464;28;20097;-79
2023/09/16 04:55:42;;;;;;;1.35;1.05;;;13.80;12.10;;;;;;5079237;28;20132;-79
2023/09/16 04:58:09;;;;;;;1.30;1.00;;;13.80;4.30;;;;;;5061767;28;20570;-79
2023/09/16 05:00:38;;;;;;;1.45;1.00;;;13.80;13.40;;;;;;5064263;28;20131;-79
2023/09/16 05:03:05;;;;;;;0.82;0.77;;;13.80;14.00;;;;;;5078898;28;20060;-79
2023/09/16 05:05:33;;;;;;;1.00;0.80;;;13.80;10.00;;;;;;5050513;28;20052;-78
2023/09/16 05:08:00;;;;;;;1.05;0.95;;;13.70;8.40;;;;;;5060832;28;20040;-78
2023/09/16 05:10:27;;;;;;;1.27;0.70;;;13.70;13.50;;;;;;5062800;28;20040;-79
2023/09/16 05:12:54;;;;;;;1.40;0.90;;;13.70;10.00;;;;;;5045509;28;20131;-79
2023/09/16 05:15:25;;;;;;;1.90;0.90;;;13.70;15.30;;;;;;5079286;28;20044;-78
2023/09/16 05:17:52;;;;;;;2.00;1.05;;;13.70;25.20;;;;;;5081717;28;20044;-79
2023/09/16 05:20:19;;;;;;;1.10;0.90;;;13.70;26.60;;;;;;5049162;28;20143;-78
2023/09/16 05:22:49;;;;;;;1.48;0.80;;;13.80;32.20;;;;;;5082732;28;20059;-78
2023/09/16 05:25:16;;;;;;;1.55;1.10;;;13.80;28.00;;;;;;5062167;28;20067;-79
2023/09/16 05:27:44;;;;;;;1.35;1.20;;;13.80;27.30;;;;;;5077939;28;20052;-78
2023/09/16 05:30:11;;;;;;;1.45;0.80;;;13.80;20.70;;;;;;5083360;28;20398;-81
2023/09/16 05:32:38;;;;;;;1.00;0.70;;;13.70;29.00;;;;;;5083620;28;20044;-79
2023/09/16 05:35:08;;;;;;;0.77;0.70;;;13.70;24.50;;;;;;5082440;28;20160;-79
2023/09/16 05:37:35;;;;;;;2.03;1.40;;;13.70;17.60;;;;;;5083067;28;20044;-80
2023/09/16 05:40:02;;;;;;;1.27;0.88;;;13.70;12.30;;;;;;5043956;28;20097;-79
2023/09/16 05:42:30;;;;;;;1.13;0.80;;;13.70;23.80;;;;;;5053374;28;20654;-79
2023/09/16 05:44:59;;;;;;;0.70;0.68;;;13.80;28.00;;;;;;5065860;28;20400;-80
2023/09/16 05:47:29;;;;;;;1.27;0.60;;;13.80;37.70;;;;;;5073214;28;20060;-79
2023/09/16 05:49:57;;;;;;;0.88;0.68;;;13.70;35.70;;;;;;5057820;28;20090;-78
2023/09/16 05:52:24;;;;;;;1.08;0.77;;;13.70;43.60;;;;;;5062920;28;20083;-79
2023/09/16 05:54:51;;;;;;;1.00;0.88;;;13.80;45.90;;;;;;5058364;28;20056;-79
2023/09/16 05:57:17;;;;;;;0.85;0.63;;;13.80;49.80;;;;;;5057863;28;20138;-79
2023/09/16 05:59:44;;;;;;;1.13;0.75;;;13.80;46.70;;;;;;5039364;28;20067;-79
2023/09/16 06:02:12;;;;;;;0.65;0.57;;;13.80;41.30;;;;;;5037908;28;20048;-80
2023/09/16 06:04:39;;;;;;;0.98;0.80;;;13.80;30.00;;;;;;5070724;28;20045;-80
2023/09/16 06:07:06;;;;;;;1.10;0.70;;;13.90;28.60;;;;;;5070349;28;20044;-80
2023/09/16 06:09:33;;;;;;;1.33;0.90;;;13.90;30.40;;;;;;5074577;28;20074;-80
2023/09/16 06:12:01;;;;;;;1.08;0.60;;;13.80;32.20;;;;;;5056899;28;20113;-80
2023/09/16 06:14:28;;;;;;;1.30;0.70;;;13.80;36.80;;;;;;5074181;28;20136;-80
2023/09/16 06:16:54;;;;;;;1.27;1.02;;;13.80;32.10;;;;;;5073546;28;20048;-80
2023/09/16 06:19:21;;;;;;;1.27;0.88;;;13.80;47.30;;;;;;5070770;28;20124;-78
2023/09/16 06:21:48;;;;;;;1.42;0.88;;;13.80;51.60;;;;;;5069273;28;20451;-78
2023/09/16 06:24:15;;;;;;;1.63;1.00;;;13.80;41.90;;;;;;5072154;28;20054;-79
2023/09/16 06:26:42;;;;;;;1.15;0.63;;;13.90;46.00;;;;;;5085495;28;20044;-79
2023/09/16 06:29:09;;;;;;;1.02;0.70;;;13.90;32.90;;;;;;5082258;28;20056;-79
2023/09/16 06:31:36;;;;;;;1.00;0.75;;;14.00;32.60;;;;;;5083229;28;20047;-78
2023/09/16 06:34:05;;;;;;;0.90;0.60;;;14.00;31.80;;;;;;5082950;28;20060;-79
2023/09/16 06:36:32;;;;;;;0.75;0.63;;;14.00;37.60;;;;;;5081402;28;20074;-79
2023/09/16 06:39:00;;;;;;;0.82;0.60;;;14.10;39.60;;;;;;5084280;28;20070;-80
2023/09/16 06:41:27;;;;;;;0.88;0.63;;;14.10;38.30;;;;;;5081433;28;20082;-79
2023/09/16 06:43:54;;;;;;;1.33;0.90;;;14.20;34.60;;;;;;5075701;28;20113;-79
2023/09/16 06:46:21;;;;;;;0.50;0.40;;;14.20;34.60;;;;;;5079341;28;20475;-79
2023/09/16 06:48:50;;;;;;;1.20;0.88;;;14.30;43.60;;;;;;5079864;28;20098;-79
2023/09/16 06:51:17;;;;;;;0.93;0.68;;;14.30;41.80;;;;;;5082698;28;20392;-79
2023/09/16 06:53:44;;;;;;;2.13;0.60;;;14.40;50.80;;;;;;5079455;28;20104;-79
2023/09/16 06:56:11;;;;;;;0.93;0.68;;;14.50;58.20;;;;;;5079837;28;20051;-79
2023/09/16 06:58:38;;;;;;;1.48;0.88;;;14.60;58.30;;;;;;5081300;28;20100;-78
2023/09/16 07:01:25;;;;;;;1.35;0.85;;;14.70;62.80;;;;;;5076177;28;22582;-78
2023/09/16 07:03:52;;;;;;;1.05;0.70;;;14.80;67.10;;;;;;5074016;28;20044;-78
2023/09/16 07:06:19;;;;;;;0.85;0.52;;;14.90;67.10;;;;;;5072041;28;20040;-78
2023/09/16 07:08:46;;;;;;;1.20;0.88;;;14.90;61.90;;;;;;5073320;28;20509;-78
2023/09/16 07:11:15;;;;;;;0.95;0.65;;;15.00;59.50;;;;;;5057122;28;20045;-78
2023/09/16 07:13:41;;;;;;;1.40;0.90;;;15.10;57.20;;;;;;5052600;28;20416;-79
2023/09/16 07:16:11;;;;;;;1.25;0.70;;;15.20;55.10;;;;;;5066345;28;20055;-79
2023/09/16 07:18:38;;;;;;;1.23;0.98;;;15.40;56.40;;;;;;5062943;28;20127;-79
2023/09/16 07:21:06;;;;;;;1.50;0.95;;;15.50;68.20;;;;;;5075085;28;20503;-78
2023/09/16 07:23:34;;;;;;;1.30;1.02;;;15.60;77.40;;;;;;5075107;28;20051;-79
2023/09/16 07:26:01;;;;;;;0.75;0.70;;;15.70;84.50;;;;;;5075205;28;20798;-78
2023/09/16 07:28:28;;;;;;;1.15;0.88;;;15.80;75.20;;;;;;5056523;28;20044;-79
2023/09/16 07:30:56;;;;;;;1.10;0.80;;;15.90;79.70;;;;;;5072663;28;20055;-78
2023/09/16 07:33:23;;;;;;;1.02;0.82;;;16.00;77.30;;;;;;5074750;28;20056;-79
2023/09/16 07:35:51;;;;;;;0.90;0.75;;;16.10;78.90;;;;;;5081285;28;20056;-80
2023/09/16 07:38:18;;;;;;;1.00;0.90;;;16.10;82.90;;;;;;5063435;28;20044;-82
2023/09/16 07:40:45;;;;;;;1.20;1.10;;;16.30;90.70;;;;;;5052338;28;20043;-80
2023/09/16 07:43:12;;;;;;;1.33;1.00;;;16.30;94.10;;;;;;5090046;28;20048;-81
2023/09/16 07:45:41;;;;;;;1.70;1.20;;;16.40;96.70;;;;;;5083535;28;20048;-81
2023/09/16 07:48:09;;;;;;;1.25;1.00;;;16.50;99.90;;;;;;5065610;28;20071;-82
2023/09/16 07:50:36;;;;;;;2.58;1.50;;;16.60;99.90;;;;;;5082272;28;20094;-82
2023/09/16 07:53:03;;;;;;;1.48;1.10;;;16.70;99.90;;;;;;5079562;28;20072;-81
2023/09/16 07:55:31;;;;;;;1.83;1.33;;;16.80;99.90;;;;;;5074620;28;20046;-82
2023/09/16 07:57:57;;;;;;;1.70;1.42;;;16.90;99.90;;;;;;5079498;28;20511;-79
2023/09/16 08:00:25;;;;;;;2.08;1.40;;;17.00;99.90;;;;;;5076099;28;20647;-81
2023/09/16 08:02:55;;;;;;;1.80;1.23;;;17.00;99.90;;;;;;5093231;28;20066;-81
2023/09/16 08:05:22;;;;;;;1.85;1.38;;;17.10;99.90;;;;;;5062320;28;20047;-80
2023/09/16 08:07:50;;;;;;;2.15;1.40;;;17.20;99.90;;;;;;5057609;28;20195;-81
2023/09/16 08:10:17;;;;;;;1.67;1.20;;;17.30;99.90;;;;;;5080891;28;20118;-81
2023/09/16 08:12:44;;;;;;;1.50;1.23;;;17.40;99.90;;;;;;5061374;28;20058;-81
2023/09/16 08:15:11;;;;;;;1.38;1.20;;;17.50;99.90;;;;;;5072334;28;20048;-80
2023/09/16 08:17:38;;;;;;;2.17;1.40;;;17.60;99.90;;;;;;5062282;28;20043;-81
2023/09/16 08:20:06;;;;;;;1.55;1.08;;;17.70;99.90;;;;;;5075241;28;20056;-80
2023/09/16 08:22:33;;;;;;;1.48;1.27;;;17.90;99.90;;;;;;5057340;28;20120;-81
2023/09/16 08:25:02;;;;;;;1.35;1.15;;;17.90;99.90;;;;;;5046343;28;20059;-81
2023/09/16 08:27:31;;;;;;;2.47;1.67;;;18.00;99.90;;;;;;5055385;28;20657;-81
2023/09/16 08:29:57;;;;;;;2.28;1.42;;;18.10;99.90;;;;;;5061393;28;20043;-78
2023/09/16 08:32:28;;;;;;;1.65;1.25;;;18.20;99.90;;;;;;5071884;28;20377;-77
2023/09/16 08:34:56;;;;;;;1.67;1.15;;;18.30;99.90;;;;;;5078334;28;20288;-77
2023/09/16 08:37:23;;;;;;;1.77;1.38;;;18.40;99.90;;;;;;5077877;28;20080;-78
2023/09/16 08:39:50;;;;;;;2.20;1.45;;;18.40;99.90;;;;;;5059652;28;20076;-78
2023/09/16 08:42:33;;;;;;;2.05;0.95;;;18.50;99.90;;;;;;5075928;28;20052;-78
2023/09/16 08:45:03;;;;;;;1.83;1.30;;;18.60;99.90;;;;;;5080013;28;20036;-78
2023/09/16 08:47:57;;;;;;;1.70;1.20;;;18.70;99.10;;;;;;5063833;28;20055;-78
2023/09/16 08:50:24;;;;;;;1.77;1.08;;;18.80;93.50;;;;;;5080431;28;20056;-78
2023/09/16 08:52:53;;;;;;;2.33;1.65;;;18.90;92.60;;;;;;5056801;28;20131;-78
2023/09/16 08:55:20;;;;;;;2.08;1.70;;;19.00;69.40;;;;;;5075960;28;20056;-78
2023/09/16 08:57:49;;;;;;;1.77;1.50;;;19.10;35.50;;;;;;5074117;28;20048;-78
2023/09/16 09:00:16;;;;;;;2.08;1.50;;;19.20;34.60;;;;;;5073768;28;20063;-77
2023/09/16 09:02:44;;;;;;;2.88;2.10;;;19.30;1.00;;;;;;5061630;28;20609;-78
2023/09/16 09:05:11;;;;;;;1.92;1.42;;;19.40;1.00;;;;;;5081455;28;20675;-77
2023/09/16 09:07:41;;;;;;;2.05;1.40;;;19.50;1.00;;;;;;5049985;28;20151;-78
2023/09/16 09:10:12;;;;;;;1.63;1.15;;;19.60;1.00;;;;;;5084534;28;20116;-78
2023/09/16 09:12:41;;;;;;;1.95;1.45;;;19.60;1.00;;;;;;5084181;28;20052;-78
2023/09/16 09:15:17;;;;;;;1.75;1.17;;;19.80;1.00;;;;;;5078896;28;20040;-77
2023/09/16 09:17:49;;;;;;;2.45;1.70;;;19.80;99.90;;;;;;5076376;28;20055;-76
2023/09/16 09:20:20;;;;;;;1.23;1.00;;;20.00;99.90;;;;;;5081823;28;20132;-77
2023/09/16 09:22:48;;;;;;;2.30;1.75;;;20.10;99.90;;;;;;5067293;28;20071;-77
2023/09/16 09:25:22;;;;;;;2.03;1.30;;;20.20;99.90;;;;;;5041002;28;20079;-77
2023/09/16 09:27:52;;;;;;;1.55;1.08;;;20.20;99.90;;;;;;5077723;28;20051;-79
2023/09/16 09:30:24;;;;;;;2.20;1.10;;;20.30;99.90;;;;;;5076911;28;20052;-78
2023/09/16 09:32:52;;;;;;;1.75;1.35;;;20.30;99.90;;;;;;5080973;28;20127;-78
2023/09/16 09:35:23;;;;;;;1.90;1.42;;;20.40;99.90;;;;;;5072323;28;20083;-78
2023/09/16 09:37:50;;;;;;;1.80;1.48;;;20.50;99.90;;;;;;5097180;28;20062;-78
2023/09/16 09:40:18;;;;;;;2.00;1.50;;;20.60;99.90;;;;;;5069819;28;20052;-78
2023/09/16 09:42:46;;;;;;;1.65;1.25;;;20.70;99.90;;;;;;5057783;28;20041;-77
2023/09/16 09:45:14;;;;;;;2.10;1.30;;;20.70;99.90;;;;;;5057623;28;20044;-78
2023/09/16 09:47:41;;;;;;;2.42;1.60;;;20.80;99.90;;;;;;5060800;28;20495;-78
2023/09/16 09:50:13;;;;;;;2.55;1.67;;;20.90;99.90;;;;;;5056965;28;20133;-78
2023/09/16 09:52:47;;;;;;;2.17;1.63;;;21.00;99.90;;;;;;5062895;28;20501;-78
2023/09/16 09:55:18;;;;;;;2.92;2.10;;;21.10;99.90;;;;;;5077958;28;20052;-78
2023/09/16 09:57:45;;;;;;;2.63;1.75;;;21.20;99.90;;;;;;5082854;28;20487;-79
2023/09/16 10:00:17;;;;;;;2.10;1.67;;;21.40;99.90;;;;;;5081784;28;20066;-79
2023/09/16 10:02:44;;;;;;;1.58;1.40;;;21.50;99.90;;;;;;5078104;28;20059;-78
2023/09/16 10:05:13;;;;;;;2.10;1.70;;;21.60;25.60;;;;;;5078766;28;20051;-78
2023/09/16 10:07:42;;;;;;;1.52;1.08;;;21.70;1.00;;;;;;5075566;28;20051;-79
2023/09/16 10:10:13;;;;;;;1.55;1.30;;;21.90;1.00;;;;;;5080303;28;20075;-78
2023/09/16 10:12:40;;;;;;;1.63;1.33;;;21.90;1.00;;;;;;5066069;28;20040;-78
2023/09/16 10:15:07;;;;;;;1.88;1.23;;;22.00;99.90;;;;;;5069719;28;20063;-78
2023/09/16 10:17:34;;;;;;;2.40;1.45;;;22.10;99.90;;;;;;5064558;28;20051;-79
2023/09/16 10:20:01;;;;;;;1.33;1.08;;;22.20;99.90;;;;;;5085991;28;20124;-78
2023/09/16 10:22:29;;;;;;;1.60;1.20;;;22.20;99.90;;;;;;5058812;28;20055;-78
2023/09/16 10:24:56;;;;;;;1.30;0.95;;;22.40;64.70;;;;;;5063397;28;20075;-78
2023/09/16 10:27:24;;;;;;;1.42;1.05;;;22.50;99.90;;;;;;5053106;28;20511;-80
2023/09/16 10:29:51;;;;;;;1.70;1.25;;;22.70;1.00;;;;;;5062216;28;20044;-78
2023/09/16 10:32:18;;;;;;;2.17;1.60;;;22.70;1.00;;;;;;5078358;28;20047;-78
2023/09/16 10:34:47;;;;;;;2.47;1.15;;;22.80;99.90;;;;;;5064036;28;20136;-79
2023/09/16 10:37:17;;;;;;;2.22;1.50;;;22.90;99.90;;;;;;5060300;28;20332;-78
2023/09/16 10:39:46;;;;;;;1.92;1.17;;;23.00;99.90;;;;;;5063492;28;20056;-78
2023/09/16 10:42:17;;;;;;;1.60;1.27;;;23.10;99.90;;;;;;5060994;28;20054;-79
2023/09/16 10:44:44;;;;;;;1.60;1.20;;;23.20;1.00;;;;;;5060639;28;20040;-79
2023/09/16 10:47:11;;;;;;;2.17;1.30;;;23.20;99.90;;;;;;5044713;28;20051;-78
2023/09/16 10:49:38;;;;;;;1.55;1.33;;;23.40;99.90;;;;;;5046124;28;20051;-79
2023/09/16 10:52:07;;;;;;;1.75;1.15;;;23.60;1.00;;;;;;5079231;28;20060;-79
2023/09/16 10:54:43;;;;;;;1.40;1.02;;;23.60;99.90;;;;;;5042467;28;20169;-78
2023/09/16 10:57:19;;;;;;;1.60;1.17;;;23.70;88.60;;;;;;5065200;28;20104;-79
2023/09/16 10:59:47;;;;;;;1.67;1.30;;;23.80;1.00;;;;;;5064921;28;20047;-79
2023/09/16 11:02:36;;;;;;;1.50;1.10;;;23.90;1.00;;;;;;5063461;28;20139;-79
2023/09/16 11:05:03;;;;;;;1.58;1.20;;;24.00;1.00;;;;;;5061214;28;20097;-79
2023/09/16 11:07:30;;;;;;;1.58;1.13;;;24.10;1.00;;;;;;5076754;28;20044;-79
2023/09/16 11:09:57;;;;;;;1.60;1.10;;;24.10;1.00;;;;;;5058230;28;20044;-79
2023/09/16 11:12:24;;;;;;;2.15;1.30;;;24.10;1.00;;;;;;5060344;28;20043;-79
2023/09/16 11:14:51;;;;;;;1.65;1.08;;;24.20;1.00;;;;;;5074845;28;20130;-78
2023/09/16 11:17:18;;;;;;;1.80;1.10;;;24.40;1.00;;;;;;5058984;28;20056;-78
2023/09/16 11:19:45;;;;;;;1.25;1.00;;;24.60;1.00;;;;;;5045800;28;20118;-79
2023/09/16 11:22:12;;;;;;;1.63;1.40;;;24.70;99.90;;;;;;5055553;28;20067;-78
2023/09/16 11:24:39;;;;;;;2.13;1.55;;;25.00;99.90;;;;;;5076915;28;20125;-78
2023/09/16 11:27:09;;;;;;;2.10;1.35;;;25.10;99.90;;;;;;5077884;28;20924;-79
2023/09/16 11:29:36;;;;;;;1.33;0.95;;;25.30;99.90;;;;;;5072230;28;20063;-79
2023/09/16 11:32:04;;;;;;;1.75;1.10;;;25.50;99.90;;;;;;5059360;28;20055;-79
2023/09/16 11:34:32;;;;;;;1.23;0.90;;;25.50;99.90;;;;;;5077187;28;20592;-79
2023/09/16 11:37:01;;;;;;;1.55;1.10;;;25.80;99.90;;;;;;5073892;28;20075;-79
2023/09/16 11:39:35;;;;;;;1.20;1.02;;;25.90;99.90;;;;;;5055733;28;20075;-80
2023/09/16 11:42:03;;;;;;;1.65;1.15;;;26.00;99.90;;;;;;5071780;28;20046;-84
2023/09/16 11:44:30;;;;;;;1.13;1.00;;;26.30;99.90;;;;;;5072740;28;20068;-83
2023/09/16 11:46:58;;;;;;;1.20;0.98;;;26.50;99.90;;;;;;5073764;28;20499;-83
2023/09/16 11:49:25;;;;;;;1.50;1.40;;;26.60;99.90;;;;;;5054992;28;20059;-83
2023/09/16 11:51:53;;;;;;;0.98;0.90;;;26.90;99.90;;;;;;5052664;28;20131;-83
2023/09/16 11:54:20;;;;;;;2.50;1.02;;;27.20;99.90;;;;;;5074036;28;20047;-83
2023/09/16 11:56:47;;;;;;;1.33;1.10;;;27.40;99.90;;;;;;5052763;28;20164;-84
2023/09/16 11:59:15;;;;;;;2.20;1.20;;;27.50;99.90;;;;;;5038272;28;20469;-83
2023/09/16 12:01:44;;;;;;;0.98;0.90;;;27.80;99.90;;;;;;5053781;28;20083;-83
2023/09/16 12:04:12;;;;;;;1.20;0.95;;;28.00;99.90;;;;;;5054065;28;20138;-84
2023/09/16 12:06:39;;;;;;;1.83;1.13;;;28.30;99.90;;;;;;5071626;28;20060;-83
2023/09/16 12:09:12;;;;;;;1.77;1.20;;;28.40;99.90;;;;;;5040814;28;20196;-84
2023/09/16 12:11:39;;;;;;;1.25;0.82;;;28.80;99.90;;;;;;5074905;28;20059;-84
2023/09/16 12:14:07;;;;;;;0.77;0.70;;;29.30;99.90;;;;;;5057490;28;20574;-83
2023/09/16 12:16:36;;;;;;;1.25;0.82;;;29.60;99.90;;;;;;5058474;28;20198;-82
2023/09/16 12:19:04;;;;;;;1.10;0.93;;;29.50;99.90;;;;;;5058616;28;20595;-83
2023/09/16 12:21:31;;;;;;;2.47;1.00;;;29.60;99.90;;;;;;5074562;28;20428;-82
2023/09/16 12:23:59;;;;;;;1.00;0.80;;;29.90;99.90;;;;;;5056509;28;20048;-83
2023/09/16 12:26:26;;;;;;;0.80;0.80;;;30.20;99.90;;;;;;5073754;28;20047;-83
2023/09/16 12:28:53;;;;;;;1.02;0.90;;;30.50;99.90;;;;;;5042131;28;20044;-83
2023/09/16 12:31:24;;;;;;;1.15;0.95;;;30.70;99.90;;;;;;5091210;28;20063;-83
2023/09/16 12:33:54;;;;;;;0.85;0.80;;;30.70;99.90;;;;;;5074510;28;20044;-83
2023/09/16 12:36:26;;;;;;;1.00;0.80;;;30.80;99.90;;;;;;5055583;28;20076;-83
2023/09/16 12:38:58;;;;;;;1.25;1.10;;;31.00;99.90;;;;;;5069644;28;20052;-82
2023/09/16 12:41:28;;;;;;;0.93;0.82;;;31.20;99.90;;;;;;5072172;28;20044;-83
2023/09/16 12:43:56;;;;;;;0.88;0.88;;;31.30;99.90;;;;;;5037041;28;20048;-82
2023/09/16 12:46:24;;;;;;;0.95;0.85;;;31.50;99.90;;;;;;5076046;28;20075;-81
2023/09/16 12:48:51;;;;;;;1.02;0.90;;;31.60;99.90;;;;;;5051346;28;20051;-84
2023/09/16 12:51:19;;;;;;;0.70;0.70;;;31.90;99.90;;;;;;5056903;28;20052;-83
2023/09/16 12:53:50;;;;;;;0.88;0.82;;;32.00;99.90;;;;;;5072461;28;20583;-84
2023/09/16 12:56:19;;;;;;;0.85;0.70;;;31.90;99.90;;;;;;5054352;28;20048;-83